RYR95GH EGPH-LFBZ
Flight info
| Callsign | RYR95GH |
|---|---|
| Flight time | 1h 53m |
| Altitude | 37000 |
| Route | GOSAM P600 FENIK L612 NAVSO DCT ADZOP DCT EGTOC DCT NOKIN/N0463F380 N862 KARNO DCT ALHUP DCT ABWIV DCT PACSE DCT SIDHO DCT TONQU/N0458F390 DCT MANIG DCT BADUR DCT KORER UM616 TUPAR DCT CNA/N0456F360 DCT VAVIX DCT MAGEC |
| Aircraft | B738/M-SDE2E3FGHIRWXY/LB1 |
Departure
| Time | 2026-04-21 13:38 |
|---|---|
| Airport | Edinburgh Airport (EGPH) |
Arrival
| Time | 2026-04-21 15:32 |
|---|---|
| Airport | Biarritz Pays Basque airport (LFBZ) |
| Time | Latitude | Longitude | Altitude | Speed | Heading |
|---|---|---|---|---|---|
| 2026-04-21 12:53 | 55.94800 | -3.35681 | 144 ft | 0 kts | 209° |
| 2026-04-21 13:19 | 55.94804 | -3.35677 | 144 ft | 2 kts | 209° |
| 2026-04-21 13:19 | 55.94818 | -3.35663 | 144 ft | 3 kts | 215° |
| 2026-04-21 13:19 | 55.94831 | -3.35638 | 144 ft | 3 kts | 237° |
| 2026-04-21 13:19 | 55.94839 | -3.35605 | 144 ft | 3 kts | 260° |
| 2026-04-21 13:20 | 55.94839 | -3.35569 | 144 ft | 3 kts | 281° |
| 2026-04-21 13:20 | 55.94834 | -3.35536 | 144 ft | 3 kts | 285° |
| 2026-04-21 13:20 | 55.94829 | -3.35513 | 144 ft | 0 kts | 298° |
| 2026-04-21 13:22 | 55.94829 | -3.35514 | 144 ft | 0 kts | 298° |
| 2026-04-21 13:22 | 55.94833 | -3.35527 | 144 ft | 2 kts | 298° |
| 2026-04-21 13:22 | 55.94845 | -3.35567 | 144 ft | 5 kts | 298° |
| 2026-04-21 13:23 | 55.94865 | -3.35635 | 144 ft | 7 kts | 298° |
| 2026-04-21 13:23 | 55.94893 | -3.35726 | 144 ft | 10 kts | 298° |
| 2026-04-21 13:23 | 55.94928 | -3.35838 | 144 ft | 10 kts | 298° |
| 2026-04-21 13:23 | 55.94977 | -3.35868 | 144 ft | 8 kts | 26° |
| 2026-04-21 13:24 | 55.95032 | -3.35837 | 144 ft | 8 kts | 342° |
| 2026-04-21 13:24 | 55.95069 | -3.35925 | 144 ft | 10 kts | 298° |
| 2026-04-21 13:24 | 55.95106 | -3.36051 | 144 ft | 12 kts | 289° |
| 2026-04-21 13:24 | 55.95135 | -3.36211 | 144 ft | 14 kts | 288° |
| 2026-04-21 13:25 | 55.95122 | -3.36321 | 144 ft | 9 kts | 239° |
| 2026-04-21 13:25 | 55.95087 | -3.36426 | 144 ft | 11 kts | 239° |
| 2026-04-21 13:25 | 55.95043 | -3.36555 | 144 ft | 13 kts | 239° |
| 2026-04-21 13:25 | 55.94990 | -3.36712 | 144 ft | 16 kts | 239° |
| 2026-04-21 13:26 | 55.94929 | -3.36895 | 144 ft | 18 kts | 239° |
| 2026-04-21 13:26 | 55.94859 | -3.37101 | 144 ft | 20 kts | 239° |
| 2026-04-21 13:26 | 55.94796 | -3.37289 | 144 ft | 15 kts | 239° |
| 2026-04-21 13:26 | 55.94741 | -3.37455 | 144 ft | 16 kts | 239° |
| 2026-04-21 13:27 | 55.94679 | -3.37636 | 144 ft | 18 kts | 239° |
| 2026-04-21 13:27 | 55.94611 | -3.37839 | 144 ft | 18 kts | 239° |
| 2026-04-21 13:27 | 55.94556 | -3.38000 | 144 ft | 13 kts | 239° |
| 2026-04-21 13:27 | 55.94515 | -3.38124 | 144 ft | 9 kts | 239° |
| 2026-04-21 13:28 | 55.94489 | -3.38201 | 144 ft | 7 kts | 239° |
| 2026-04-21 13:28 | 55.94462 | -3.38282 | 144 ft | 9 kts | 239° |
| 2026-04-21 13:28 | 55.94428 | -3.38383 | 144 ft | 11 kts | 239° |
| 2026-04-21 13:28 | 55.94389 | -3.38497 | 144 ft | 9 kts | 239° |
| 2026-04-21 13:29 | 55.94366 | -3.38566 | 144 ft | 7 kts | 239° |
| 2026-04-21 13:29 | 55.94337 | -3.38652 | 144 ft | 9 kts | 239° |
| 2026-04-21 13:29 | 55.94328 | -3.38680 | 144 ft | 0 kts | 239° |
| 2026-04-21 13:29 | 55.94325 | -3.38687 | 144 ft | 2 kts | 239° |
| 2026-04-21 13:30 | 55.94316 | -3.38715 | 144 ft | 4 kts | 239° |
| 2026-04-21 13:30 | 55.94301 | -3.38760 | 144 ft | 3 kts | 239° |
| 2026-04-21 13:30 | 55.94298 | -3.38768 | 144 ft | 0 kts | 239° |
| 2026-04-21 13:31 | 55.94298 | -3.38769 | 144 ft | 0 kts | 239° |
| 2026-04-21 13:33 | 55.94298 | -3.38770 | 144 ft | 0 kts | 239° |
| 2026-04-21 13:33 | 55.94297 | -3.38770 | 144 ft | 0 kts | 239° |
| 2026-04-21 13:34 | 55.94297 | -3.38771 | 144 ft | 1 kts | 239° |
| 2026-04-21 13:34 | 55.94290 | -3.38791 | 144 ft | 3 kts | 239° |
| 2026-04-21 13:34 | 55.94286 | -3.38841 | 144 ft | 5 kts | 285° |
| 2026-04-21 13:35 | 55.94307 | -3.38882 | 144 ft | 3 kts | 328° |
| 2026-04-21 13:35 | 55.94325 | -3.38901 | 144 ft | 0 kts | 329° |
| 2026-04-21 13:36 | 55.94328 | -3.38904 | 144 ft | 2 kts | 329° |
| 2026-04-21 13:36 | 55.94349 | -3.38926 | 144 ft | 6 kts | 329° |
| 2026-04-21 13:36 | 55.94393 | -3.38974 | 144 ft | 7 kts | 333° |
| 2026-04-21 13:37 | 55.94420 | -3.38970 | 144 ft | 5 kts | 37° |
| 2026-04-21 13:37 | 55.94433 | -3.38937 | 144 ft | 0 kts | 59° |
| 2026-04-21 13:38 | 55.94494 | -3.38757 | 144 ft | 44 kts | 59° |
| 2026-04-21 13:38 | 55.94771 | -3.37936 | 144 ft | 108 kts | 59° |
| 2026-04-21 13:38 | 55.95231 | -3.36572 | 358 ft | 140 kts | 59° |
| 2026-04-21 13:38 | 55.95752 | -3.35044 | 1000 ft | 150 kts | 59° |
| 2026-04-21 13:39 | 55.96385 | -3.33471 | 1633 ft | 162 kts | 47° |
| 2026-04-21 13:39 | 55.97269 | -3.32135 | 2283 ft | 174 kts | 41° |
| 2026-04-21 13:39 | 55.98272 | -3.30800 | 2928 ft | 184 kts | 40° |
| 2026-04-21 13:39 | 55.99336 | -3.29433 | 3616 ft | 191 kts | 39° |
| 2026-04-21 13:40 | 56.00438 | -3.28035 | 4303 ft | 197 kts | 38° |
| 2026-04-21 13:40 | 56.01736 | -3.27178 | 4953 ft | 209 kts | 11° |
| 2026-04-21 13:40 | 56.03631 | -3.28154 | 5860 ft | 225 kts | 330° |
| 2026-04-21 13:40 | 56.04401 | -3.29488 | 6108 ft | 243 kts | 311° |
| 2026-04-21 13:41 | 56.05024 | -3.32290 | 6799 ft | 245 kts | 280° |
| 2026-04-21 13:41 | 56.04931 | -3.35325 | 7554 ft | 243 kts | 258° |
| 2026-04-21 13:41 | 56.04542 | -3.38233 | 8264 ft | 244 kts | 252° |
| 2026-04-21 13:41 | 56.04057 | -3.41208 | 8977 ft | 249 kts | 250° |
| 2026-04-21 13:42 | 56.03558 | -3.44170 | 9699 ft | 253 kts | 250° |
| 2026-04-21 13:42 | 56.03030 | -3.47233 | 10440 ft | 262 kts | 249° |
| 2026-04-21 13:42 | 56.02471 | -3.50385 | 11237 ft | 273 kts | 249° |
| 2026-04-21 13:42 | 56.01851 | -3.53827 | 11440 ft | 312 kts | 249° |
| 2026-04-21 13:43 | 56.01160 | -3.57684 | 11977 ft | 332 kts | 250° |
| 2026-04-21 13:43 | 56.00453 | -3.61654 | 12729 ft | 344 kts | 249° |
| 2026-04-21 13:43 | 55.99330 | -3.65480 | 13496 ft | 348 kts | 229° |
| 2026-04-21 13:43 | 55.97572 | -3.68378 | 14271 ft | 348 kts | 209° |
| 2026-04-21 13:44 | 55.95365 | -3.70144 | 15062 ft | 348 kts | 193° |
| 2026-04-21 13:44 | 55.92991 | -3.71160 | 15842 ft | 352 kts | 186° |
| 2026-04-21 13:44 | 55.90560 | -3.71833 | 16606 ft | 360 kts | 183° |
| 2026-04-21 13:44 | 55.88033 | -3.72353 | 17373 ft | 370 kts | 182° |
| 2026-04-21 13:45 | 55.85418 | -3.72780 | 18138 ft | 379 kts | 181° |
| 2026-04-21 13:45 | 55.82772 | -3.73148 | 18889 ft | 387 kts | 180° |
| 2026-04-21 13:45 | 55.80070 | -3.73502 | 19640 ft | 394 kts | 180° |
| 2026-04-21 13:45 | 55.77311 | -3.73878 | 20396 ft | 399 kts | 181° |
| 2026-04-21 13:46 | 55.74553 | -3.74269 | 21142 ft | 403 kts | 181° |
| 2026-04-21 13:46 | 55.71728 | -3.74681 | 21900 ft | 405 kts | 181° |
| 2026-04-21 13:46 | 55.68935 | -3.75092 | 22644 ft | 407 kts | 181° |
| 2026-04-21 13:46 | 55.66091 | -3.75487 | 23399 ft | 415 kts | 180° |
| 2026-04-21 13:47 | 55.63167 | -3.75890 | 24222 ft | 424 kts | 181° |
| 2026-04-21 13:47 | 55.60198 | -3.76307 | 25072 ft | 430 kts | 181° |
| 2026-04-21 13:47 | 55.57221 | -3.76718 | 25918 ft | 434 kts | 181° |
| 2026-04-21 13:47 | 55.54178 | -3.77125 | 26776 ft | 437 kts | 181° |
| 2026-04-21 13:48 | 55.51157 | -3.77511 | 27623 ft | 438 kts | 181° |
| 2026-04-21 13:48 | 55.48101 | -3.77914 | 28408 ft | 440 kts | 182° |
| 2026-04-21 13:48 | 55.45045 | -3.78322 | 28965 ft | 446 kts | 182° |
| 2026-04-21 13:48 | 55.41924 | -3.78730 | 29479 ft | 452 kts | 182° |
| 2026-04-21 13:49 | 55.38757 | -3.79137 | 29985 ft | 456 kts | 182° |
| 2026-04-21 13:49 | 55.35606 | -3.79559 | 30483 ft | 459 kts | 183° |
| 2026-04-21 13:49 | 55.32415 | -3.79987 | 30984 ft | 460 kts | 183° |
| 2026-04-21 13:49 | 55.29197 | -3.80413 | 31488 ft | 461 kts | 183° |
| 2026-04-21 13:50 | 55.26021 | -3.80382 | 31992 ft | 460 kts | 175° |
| 2026-04-21 13:50 | 55.22833 | -3.79612 | 32508 ft | 460 kts | 169° |
| 2026-04-21 13:50 | 55.19733 | -3.78460 | 33014 ft | 460 kts | 166° |
| 2026-04-21 13:50 | 55.16616 | -3.77085 | 33530 ft | 460 kts | 165° |
| 2026-04-21 13:51 | 55.13512 | -3.75598 | 34038 ft | 460 kts | 164° |
| 2026-04-21 13:51 | 55.10453 | -3.74061 | 34535 ft | 460 kts | 164° |
| 2026-04-21 13:51 | 55.07368 | -3.72461 | 35037 ft | 461 kts | 163° |
| 2026-04-21 13:51 | 55.04295 | -3.70835 | 35537 ft | 461 kts | 163° |
| 2026-04-21 13:52 | 55.01213 | -3.69190 | 35918 ft | 464 kts | 163° |
| 2026-04-21 13:52 | 54.98148 | -3.67549 | 36189 ft | 468 kts | 163° |
| 2026-04-21 13:52 | 54.95009 | -3.65868 | 36446 ft | 471 kts | 163° |
| 2026-04-21 13:52 | 54.91908 | -3.64207 | 36694 ft | 473 kts | 163° |
| 2026-04-21 13:53 | 54.88741 | -3.62515 | 36945 ft | 474 kts | 163° |
| 2026-04-21 13:53 | 54.85594 | -3.60836 | 37195 ft | 474 kts | 163° |
| 2026-04-21 13:53 | 54.82424 | -3.59150 | 37368 ft | 475 kts | 163° |
| 2026-04-21 13:53 | 54.79254 | -3.57468 | 37472 ft | 476 kts | 163° |
| 2026-04-21 13:54 | 54.72929 | -3.54121 | 37506 ft | 475 kts | 163° |
| 2026-04-21 13:54 | 54.66602 | -3.50781 | 37499 ft | 473 kts | 163° |
| 2026-04-21 13:55 | 54.60354 | -3.47481 | 37495 ft | 471 kts | 163° |
| 2026-04-21 13:55 | 54.54088 | -3.44214 | 37491 ft | 471 kts | 164° |
| 2026-04-21 13:56 | 54.47794 | -3.40994 | 37487 ft | 471 kts | 163° |
| 2026-04-21 13:56 | 54.41518 | -3.37720 | 37482 ft | 471 kts | 163° |
| 2026-04-21 13:57 | 54.35280 | -3.34473 | 37477 ft | 470 kts | 163° |
| 2026-04-21 13:57 | 54.29024 | -3.31213 | 37473 ft | 470 kts | 163° |
| 2026-04-21 13:58 | 54.22742 | -3.28007 | 37469 ft | 470 kts | 166° |
| 2026-04-21 13:58 | 54.16338 | -3.25802 | 37466 ft | 470 kts | 171° |
| 2026-04-21 13:59 | 54.09849 | -3.24227 | 37458 ft | 469 kts | 173° |
| 2026-04-21 13:59 | 54.03374 | -3.22763 | 37446 ft | 470 kts | 171° |
| 2026-04-21 14:00 | 53.96986 | -3.20637 | 37442 ft | 470 kts | 169° |
| 2026-04-21 14:00 | 53.90595 | -3.18297 | 37439 ft | 471 kts | 169° |
| 2026-04-21 14:01 | 53.84210 | -3.15906 | 37437 ft | 472 kts | 168° |
| 2026-04-21 14:01 | 53.77783 | -3.13489 | 37436 ft | 472 kts | 168° |
| 2026-04-21 14:02 | 53.71352 | -3.11073 | 37432 ft | 473 kts | 168° |
| 2026-04-21 14:03 | 53.61772 | -3.07483 | 37541 ft | 472 kts | 168° |
| 2026-04-21 14:03 | 53.55341 | -3.05084 | 37690 ft | 472 kts | 168° |
| 2026-04-21 14:04 | 53.48936 | -3.02706 | 37840 ft | 472 kts | 168° |
| 2026-04-21 14:04 | 53.42536 | -3.00342 | 37990 ft | 473 kts | 168° |
| 2026-04-21 14:05 | 53.36093 | -2.97976 | 38140 ft | 473 kts | 168° |
| 2026-04-21 14:05 | 53.29671 | -2.95696 | 38290 ft | 472 kts | 169° |
| 2026-04-21 14:06 | 53.23227 | -2.93516 | 38407 ft | 473 kts | 169° |
| 2026-04-21 14:06 | 53.16769 | -2.91369 | 38407 ft | 473 kts | 170° |
| 2026-04-21 14:07 | 53.10294 | -2.89462 | 38408 ft | 472 kts | 173° |
| 2026-04-21 14:07 | 53.03767 | -2.88705 | 38409 ft | 471 kts | 180° |
| 2026-04-21 14:08 | 52.97183 | -2.88843 | 38423 ft | 470 kts | 184° |
| 2026-04-21 14:08 | 52.90727 | -2.89630 | 38477 ft | 469 kts | 187° |
| 2026-04-21 14:09 | 52.84241 | -2.90914 | 38421 ft | 470 kts | 189° |
| 2026-04-21 14:09 | 52.77749 | -2.92404 | 38389 ft | 469 kts | 189° |
| 2026-04-21 14:10 | 52.71263 | -2.93492 | 38468 ft | 469 kts | 186° |
| 2026-04-21 14:10 | 52.64776 | -2.94225 | 38398 ft | 470 kts | 185° |
| 2026-04-21 14:11 | 52.58237 | -2.94861 | 38378 ft | 469 kts | 185° |
| 2026-04-21 14:11 | 52.51680 | -2.95456 | 38374 ft | 469 kts | 185° |
| 2026-04-21 14:12 | 52.45164 | -2.96031 | 38371 ft | 469 kts | 185° |
| 2026-04-21 14:12 | 52.38642 | -2.96601 | 38369 ft | 469 kts | 185° |
| 2026-04-21 14:13 | 52.32139 | -2.97159 | 38362 ft | 470 kts | 185° |
| 2026-04-21 14:13 | 52.25616 | -2.97706 | 38357 ft | 469 kts | 185° |
| 2026-04-21 14:14 | 52.19095 | -2.98241 | 38354 ft | 470 kts | 185° |
| 2026-04-21 14:14 | 52.12576 | -2.98770 | 38337 ft | 470 kts | 185° |
| 2026-04-21 14:15 | 52.06059 | -2.99300 | 38327 ft | 470 kts | 185° |
| 2026-04-21 14:15 | 51.99513 | -2.99835 | 38321 ft | 470 kts | 185° |
| 2026-04-21 14:16 | 51.93016 | -3.00443 | 38341 ft | 468 kts | 187° |
| 2026-04-21 14:16 | 51.86511 | -3.01492 | 38340 ft | 468 kts | 189° |
| 2026-04-21 14:17 | 51.80066 | -3.02735 | 38313 ft | 467 kts | 190° |
| 2026-04-21 14:17 | 51.73653 | -3.04029 | 38308 ft | 467 kts | 190° |
| 2026-04-21 14:18 | 51.67181 | -3.05350 | 38296 ft | 467 kts | 190° |
| 2026-04-21 14:18 | 51.60764 | -3.06666 | 38299 ft | 467 kts | 190° |
| 2026-04-21 14:19 | 51.54338 | -3.07982 | 38291 ft | 466 kts | 190° |
| 2026-04-21 14:19 | 51.47901 | -3.09295 | 38291 ft | 466 kts | 190° |
| 2026-04-21 14:20 | 51.41441 | -3.10598 | 38290 ft | 466 kts | 190° |
| 2026-04-21 14:20 | 51.35053 | -3.11880 | 38288 ft | 466 kts | 190° |
| 2026-04-21 14:21 | 51.28624 | -3.13167 | 38285 ft | 466 kts | 190° |
| 2026-04-21 14:21 | 51.22183 | -3.14453 | 38283 ft | 465 kts | 190° |
| 2026-04-21 14:22 | 51.15747 | -3.15728 | 38278 ft | 465 kts | 190° |
| 2026-04-21 14:22 | 51.09336 | -3.16986 | 38272 ft | 465 kts | 190° |
| 2026-04-21 14:23 | 51.02935 | -3.18274 | 38271 ft | 464 kts | 191° |
| 2026-04-21 14:23 | 50.96550 | -3.19635 | 38267 ft | 464 kts | 191° |
| 2026-04-21 14:24 | 50.90127 | -3.21001 | 38265 ft | 464 kts | 191° |
| 2026-04-21 14:24 | 50.83734 | -3.22287 | 38260 ft | 464 kts | 190° |
| 2026-04-21 14:25 | 50.77352 | -3.23524 | 38258 ft | 464 kts | 190° |
| 2026-04-21 14:25 | 50.70921 | -3.24768 | 38261 ft | 463 kts | 190° |
| 2026-04-21 14:26 | 50.64555 | -3.26082 | 38260 ft | 463 kts | 191° |
| 2026-04-21 14:26 | 50.58156 | -3.27407 | 38257 ft | 463 kts | 191° |
| 2026-04-21 14:27 | 50.51790 | -3.28684 | 38256 ft | 463 kts | 190° |
| 2026-04-21 14:27 | 50.45414 | -3.29905 | 38254 ft | 462 kts | 190° |
| 2026-04-21 14:28 | 50.40029 | -3.30417 | 38255 ft | 465 kts | 184° |
| 2026-04-21 14:28 | 50.33567 | -3.30294 | 38250 ft | 466 kts | 181° |
| 2026-04-21 14:29 | 50.27112 | -3.29874 | 38242 ft | 466 kts | 180° |
| 2026-04-21 14:29 | 50.20657 | -3.29365 | 38525 ft | 462 kts | 180° |
| 2026-04-21 14:29 | 50.17447 | -3.29104 | 38767 ft | 461 kts | 180° |
| 2026-04-21 14:30 | 50.14224 | -3.28847 | 38997 ft | 461 kts | 180° |
| 2026-04-21 14:30 | 50.11039 | -3.28603 | 39137 ft | 463 kts | 180° |
| 2026-04-21 14:30 | 50.07804 | -3.28363 | 39213 ft | 466 kts | 180° |
| 2026-04-21 14:31 | 50.01303 | -3.27903 | 39217 ft | 468 kts | 180° |
| 2026-04-21 14:31 | 49.94798 | -3.27415 | 39207 ft | 467 kts | 180° |
| 2026-04-21 14:32 | 49.88334 | -3.26906 | 39200 ft | 465 kts | 180° |
| 2026-04-21 14:32 | 49.81902 | -3.26116 | 39195 ft | 466 kts | 176° |
| 2026-04-21 14:33 | 49.75447 | -3.24609 | 39190 ft | 467 kts | 173° |
| 2026-04-21 14:33 | 49.69050 | -3.22862 | 39183 ft | 467 kts | 172° |
| 2026-04-21 14:34 | 49.62677 | -3.21054 | 39178 ft | 467 kts | 172° |
| 2026-04-21 14:34 | 49.56311 | -3.19224 | 39176 ft | 466 kts | 172° |
| 2026-04-21 14:35 | 49.49936 | -3.17478 | 39173 ft | 466 kts | 173° |
| 2026-04-21 14:35 | 49.43528 | -3.15779 | 39171 ft | 466 kts | 173° |
| 2026-04-21 14:36 | 49.37147 | -3.14106 | 39160 ft | 466 kts | 173° |
| 2026-04-21 14:36 | 49.30725 | -3.12431 | 39155 ft | 466 kts | 173° |
| 2026-04-21 14:37 | 49.24360 | -3.10754 | 39151 ft | 466 kts | 173° |
| 2026-04-21 14:37 | 49.17957 | -3.09058 | 39147 ft | 466 kts | 173° |
| 2026-04-21 14:38 | 49.11588 | -3.07371 | 39142 ft | 466 kts | 173° |
| 2026-04-21 14:38 | 49.05186 | -3.05679 | 39130 ft | 466 kts | 173° |
| 2026-04-21 14:39 | 48.98821 | -3.03996 | 39123 ft | 466 kts | 173° |
| 2026-04-21 14:39 | 48.92421 | -3.02326 | 39117 ft | 465 kts | 174° |
| 2026-04-21 14:40 | 48.86060 | -3.00651 | 39112 ft | 465 kts | 173° |
| 2026-04-21 14:40 | 48.79687 | -2.98965 | 39107 ft | 465 kts | 173° |
| 2026-04-21 14:41 | 48.73315 | -2.97277 | 39100 ft | 465 kts | 173° |
| 2026-04-21 14:41 | 48.66950 | -2.95589 | 39092 ft | 465 kts | 173° |
| 2026-04-21 14:42 | 48.60542 | -2.93883 | 39087 ft | 465 kts | 173° |
| 2026-04-21 14:42 | 48.54188 | -2.92192 | 39083 ft | 465 kts | 173° |
| 2026-04-21 14:43 | 48.47831 | -2.90504 | 39082 ft | 465 kts | 173° |
| 2026-04-21 14:43 | 48.41482 | -2.88822 | 39081 ft | 465 kts | 174° |
| 2026-04-21 14:44 | 48.35084 | -2.87121 | 39079 ft | 465 kts | 173° |
| 2026-04-21 14:44 | 48.28729 | -2.85429 | 39075 ft | 465 kts | 173° |
| 2026-04-21 14:45 | 48.22361 | -2.83737 | 39070 ft | 465 kts | 173° |
| 2026-04-21 14:45 | 48.15982 | -2.82046 | 39063 ft | 465 kts | 173° |
| 2026-04-21 14:46 | 48.09626 | -2.80364 | 39055 ft | 465 kts | 174° |
| 2026-04-21 14:46 | 48.03265 | -2.78677 | 39047 ft | 465 kts | 174° |
| 2026-04-21 14:47 | 47.96900 | -2.76988 | 39040 ft | 465 kts | 174° |
| 2026-04-21 14:47 | 47.90528 | -2.75289 | 39033 ft | 464 kts | 174° |
| 2026-04-21 14:48 | 47.84199 | -2.73599 | 39028 ft | 463 kts | 174° |
| 2026-04-21 14:48 | 47.77838 | -2.71902 | 39024 ft | 463 kts | 174° |
| 2026-04-21 14:49 | 47.71527 | -2.70222 | 39022 ft | 462 kts | 174° |
| 2026-04-21 14:49 | 47.65166 | -2.68533 | 39022 ft | 462 kts | 174° |
| 2026-04-21 14:50 | 47.59893 | -2.67136 | 39022 ft | 462 kts | 174° |
| 2026-04-21 14:50 | 47.52500 | -2.65180 | 39020 ft | 462 kts | 174° |
| 2026-04-21 14:51 | 47.46211 | -2.63519 | 39017 ft | 462 kts | 174° |
| 2026-04-21 14:51 | 47.39892 | -2.61855 | 39013 ft | 461 kts | 174° |
| 2026-04-21 14:52 | 47.33548 | -2.60199 | 39009 ft | 461 kts | 174° |
| 2026-04-21 14:52 | 47.27245 | -2.58558 | 39001 ft | 460 kts | 174° |
| 2026-04-21 14:53 | 47.20920 | -2.56928 | 38999 ft | 460 kts | 174° |
| 2026-04-21 14:53 | 47.14656 | -2.55409 | 38998 ft | 459 kts | 174° |
| 2026-04-21 14:54 | 47.08325 | -2.53915 | 38997 ft | 458 kts | 175° |
| 2026-04-21 14:54 | 47.02018 | -2.52441 | 38997 ft | 458 kts | 175° |
| 2026-04-21 14:55 | 46.95735 | -2.50976 | 38997 ft | 457 kts | 175° |
| 2026-04-21 14:55 | 46.89465 | -2.49517 | 38996 ft | 457 kts | 175° |
| 2026-04-21 14:56 | 46.83207 | -2.48073 | 38995 ft | 456 kts | 175° |
| 2026-04-21 14:56 | 46.76932 | -2.46635 | 38995 ft | 456 kts | 175° |
| 2026-04-21 14:57 | 46.70664 | -2.45203 | 38994 ft | 455 kts | 175° |
| 2026-04-21 14:57 | 46.64393 | -2.43773 | 38982 ft | 455 kts | 175° |
| 2026-04-21 14:58 | 46.58145 | -2.42351 | 38977 ft | 455 kts | 175° |
| 2026-04-21 14:58 | 46.51903 | -2.40933 | 38974 ft | 454 kts | 175° |
| 2026-04-21 14:59 | 46.45664 | -2.39516 | 38970 ft | 454 kts | 175° |
| 2026-04-21 14:59 | 46.39430 | -2.38093 | 38967 ft | 454 kts | 175° |
| 2026-04-21 15:00 | 46.33163 | -2.36660 | 38964 ft | 454 kts | 175° |
| 2026-04-21 15:00 | 46.26923 | -2.35235 | 38961 ft | 454 kts | 175° |
| 2026-04-21 15:01 | 46.20677 | -2.33812 | 38963 ft | 454 kts | 175° |
| 2026-04-21 15:01 | 46.14451 | -2.32397 | 38962 ft | 454 kts | 175° |
| 2026-04-21 15:02 | 46.08237 | -2.30988 | 38957 ft | 454 kts | 175° |
| 2026-04-21 15:02 | 46.01975 | -2.29572 | 38952 ft | 454 kts | 175° |
| 2026-04-21 15:03 | 45.95735 | -2.28164 | 38932 ft | 454 kts | 175° |
| 2026-04-21 15:03 | 45.89504 | -2.26761 | 38913 ft | 454 kts | 175° |
| 2026-04-21 15:04 | 45.83277 | -2.25363 | 38907 ft | 453 kts | 175° |
| 2026-04-21 15:04 | 45.77043 | -2.23965 | 38903 ft | 453 kts | 175° |
| 2026-04-21 15:05 | 45.70827 | -2.22574 | 38899 ft | 453 kts | 175° |
| 2026-04-21 15:05 | 45.61494 | -2.20492 | 38878 ft | 453 kts | 175° |
| 2026-04-21 15:06 | 45.58351 | -2.19795 | 38505 ft | 458 kts | 175° |
| 2026-04-21 15:06 | 45.55182 | -2.19092 | 38026 ft | 460 kts | 175° |
| 2026-04-21 15:06 | 45.52047 | -2.18395 | 37535 ft | 460 kts | 175° |
| 2026-04-21 15:06 | 45.48874 | -2.17688 | 37033 ft | 458 kts | 175° |
| 2026-04-21 15:07 | 45.45754 | -2.16988 | 36537 ft | 457 kts | 175° |
| 2026-04-21 15:07 | 45.42609 | -2.16279 | 36036 ft | 455 kts | 175° |
| 2026-04-21 15:07 | 45.39472 | -2.15567 | 35534 ft | 454 kts | 175° |
| 2026-04-21 15:07 | 45.36376 | -2.14861 | 35038 ft | 454 kts | 175° |
| 2026-04-21 15:08 | 45.33250 | -2.14143 | 34537 ft | 453 kts | 175° |
| 2026-04-21 15:08 | 45.30165 | -2.13435 | 34042 ft | 451 kts | 176° |
| 2026-04-21 15:08 | 45.27068 | -2.12724 | 33541 ft | 450 kts | 176° |
| 2026-04-21 15:08 | 45.23990 | -2.12024 | 33043 ft | 449 kts | 176° |
| 2026-04-21 15:09 | 45.20897 | -2.11333 | 32541 ft | 449 kts | 176° |
| 2026-04-21 15:09 | 45.17787 | -2.10642 | 32037 ft | 449 kts | 175° |
| 2026-04-21 15:09 | 45.14720 | -2.09951 | 31540 ft | 450 kts | 175° |
| 2026-04-21 15:09 | 45.11605 | -2.09256 | 31038 ft | 451 kts | 175° |
| 2026-04-21 15:10 | 45.08520 | -2.08577 | 30541 ft | 453 kts | 174° |
| 2026-04-21 15:10 | 45.05378 | -2.07876 | 30037 ft | 455 kts | 174° |
| 2026-04-21 15:10 | 45.02275 | -2.07184 | 29542 ft | 457 kts | 174° |
| 2026-04-21 15:10 | 44.99107 | -2.06483 | 29038 ft | 459 kts | 174° |
| 2026-04-21 15:11 | 44.95966 | -2.05796 | 28541 ft | 460 kts | 174° |
| 2026-04-21 15:11 | 44.92769 | -2.05106 | 28037 ft | 462 kts | 174° |
| 2026-04-21 15:11 | 44.89603 | -2.04433 | 27540 ft | 464 kts | 174° |
| 2026-04-21 15:11 | 44.86420 | -2.03756 | 27043 ft | 466 kts | 174° |
| 2026-04-21 15:12 | 44.83191 | -2.03047 | 26539 ft | 468 kts | 173° |
| 2026-04-21 15:12 | 44.79993 | -2.02335 | 26041 ft | 469 kts | 173° |
| 2026-04-21 15:12 | 44.76740 | -2.01610 | 25537 ft | 471 kts | 173° |
| 2026-04-21 15:12 | 44.73513 | -2.00893 | 25039 ft | 472 kts | 173° |
| 2026-04-21 15:13 | 44.71343 | -2.00413 | 24704 ft | 473 kts | 173° |
| 2026-04-21 15:13 | 44.67001 | -1.99461 | 24037 ft | 475 kts | 173° |
| 2026-04-21 15:13 | 44.63704 | -1.98748 | 23533 ft | 477 kts | 173° |
| 2026-04-21 15:13 | 44.60432 | -1.98047 | 23034 ft | 479 kts | 173° |
| 2026-04-21 15:14 | 44.57159 | -1.97349 | 22536 ft | 480 kts | 173° |
| 2026-04-21 15:14 | 44.53834 | -1.96644 | 22032 ft | 481 kts | 173° |
| 2026-04-21 15:14 | 44.50551 | -1.95950 | 21535 ft | 482 kts | 173° |
| 2026-04-21 15:14 | 44.47212 | -1.95246 | 21030 ft | 483 kts | 173° |
| 2026-04-21 15:15 | 44.43878 | -1.94536 | 20527 ft | 484 kts | 173° |
| 2026-04-21 15:15 | 44.40530 | -1.93798 | 20022 ft | 485 kts | 173° |
| 2026-04-21 15:15 | 44.37211 | -1.93051 | 19522 ft | 487 kts | 172° |
| 2026-04-21 15:15 | 44.33860 | -1.92289 | 19018 ft | 488 kts | 172° |
| 2026-04-21 15:16 | 44.30544 | -1.91532 | 18521 ft | 489 kts | 172° |
| 2026-04-21 15:16 | 44.27171 | -1.90760 | 18015 ft | 487 kts | 172° |
| 2026-04-21 15:16 | 44.23994 | -1.90025 | 17530 ft | 442 kts | 172° |
| 2026-04-21 15:16 | 44.21081 | -1.89342 | 17034 ft | 404 kts | 172° |
| 2026-04-21 15:17 | 44.18400 | -1.88716 | 16532 ft | 376 kts | 172° |
| 2026-04-21 15:17 | 44.15919 | -1.88134 | 16034 ft | 355 kts | 172° |
| 2026-04-21 15:17 | 44.13535 | -1.87574 | 15568 ft | 337 kts | 172° |
| 2026-04-21 15:17 | 44.12020 | -1.87219 | 15311 ft | 326 kts | 172° |
| 2026-04-21 15:18 | 44.09104 | -1.86653 | 14819 ft | 313 kts | 175° |
| 2026-04-21 15:18 | 44.07667 | -1.86472 | 14571 ft | 309 kts | 177° |
| 2026-04-21 15:18 | 44.05519 | -1.86256 | 14194 ft | 306 kts | 178° |
| 2026-04-21 15:18 | 44.03402 | -1.86077 | 13818 ft | 304 kts | 178° |
| 2026-04-21 15:19 | 44.01309 | -1.85917 | 13445 ft | 302 kts | 178° |
| 2026-04-21 15:19 | 43.99218 | -1.85767 | 13069 ft | 300 kts | 178° |
| 2026-04-21 15:19 | 43.97134 | -1.85626 | 12692 ft | 298 kts | 178° |
| 2026-04-21 15:19 | 43.95062 | -1.85491 | 12315 ft | 296 kts | 178° |
| 2026-04-21 15:20 | 43.93019 | -1.85365 | 11943 ft | 295 kts | 178° |
| 2026-04-21 15:20 | 43.90970 | -1.85244 | 11566 ft | 293 kts | 178° |
| 2026-04-21 15:20 | 43.88933 | -1.85131 | 11190 ft | 292 kts | 178° |
| 2026-04-21 15:20 | 43.86905 | -1.85024 | 10813 ft | 290 kts | 178° |
| 2026-04-21 15:21 | 43.84920 | -1.84925 | 10440 ft | 285 kts | 178° |
| 2026-04-21 15:21 | 43.82976 | -1.84834 | 10060 ft | 274 kts | 178° |
| 2026-04-21 15:21 | 43.81087 | -1.84751 | 9678 ft | 266 kts | 178° |
| 2026-04-21 15:21 | 43.79280 | -1.84677 | 9303 ft | 259 kts | 178° |
| 2026-04-21 15:22 | 43.77496 | -1.84610 | 8923 ft | 253 kts | 178° |
| 2026-04-21 15:22 | 43.75753 | -1.84550 | 8544 ft | 247 kts | 178° |
| 2026-04-21 15:22 | 43.74040 | -1.84492 | 8165 ft | 243 kts | 178° |
| 2026-04-21 15:22 | 43.72386 | -1.84438 | 7793 ft | 239 kts | 178° |
| 2026-04-21 15:23 | 43.70730 | -1.84385 | 7434 ft | 235 kts | 178° |
| 2026-04-21 15:23 | 43.69112 | -1.84333 | 7182 ft | 228 kts | 178° |
| 2026-04-21 15:23 | 43.67536 | -1.84283 | 6930 ft | 226 kts | 178° |
| 2026-04-21 15:23 | 43.65987 | -1.84234 | 6686 ft | 225 kts | 178° |
| 2026-04-21 15:24 | 43.64416 | -1.84186 | 6432 ft | 225 kts | 178° |
| 2026-04-21 15:24 | 43.62864 | -1.84139 | 6184 ft | 224 kts | 178° |
| 2026-04-21 15:24 | 43.61293 | -1.84092 | 5933 ft | 224 kts | 178° |
| 2026-04-21 15:24 | 43.59735 | -1.84046 | 5681 ft | 223 kts | 178° |
| 2026-04-21 15:25 | 43.58202 | -1.84010 | 5433 ft | 222 kts | 178° |
| 2026-04-21 15:25 | 43.56649 | -1.83983 | 5180 ft | 222 kts | 178° |
| 2026-04-21 15:25 | 43.55117 | -1.83966 | 4931 ft | 221 kts | 178° |
| 2026-04-21 15:25 | 43.53580 | -1.83959 | 4715 ft | 219 kts | 178° |
| 2026-04-21 15:26 | 43.52065 | -1.83962 | 4541 ft | 218 kts | 178° |
| 2026-04-21 15:26 | 43.50559 | -1.83972 | 4413 ft | 214 kts | 178° |
| 2026-04-21 15:26 | 43.49111 | -1.83734 | 4201 ft | 204 kts | 159° |
| 2026-04-21 15:26 | 43.48026 | -1.82608 | 4035 ft | 195 kts | 130° |
| 2026-04-21 15:27 | 43.47329 | -1.81016 | 3876 ft | 193 kts | 115° |
| 2026-04-21 15:27 | 43.46922 | -1.79288 | 3704 ft | 191 kts | 105° |
| 2026-04-21 15:27 | 43.46711 | -1.77486 | 3529 ft | 189 kts | 98° |
| 2026-04-21 15:27 | 43.46624 | -1.75684 | 3353 ft | 187 kts | 94° |
| 2026-04-21 15:28 | 43.46603 | -1.73927 | 3179 ft | 184 kts | 92° |
| 2026-04-21 15:28 | 43.46613 | -1.72203 | 3002 ft | 175 kts | 91° |
| 2026-04-21 15:28 | 43.46633 | -1.70575 | 2824 ft | 164 kts | 90° |
| 2026-04-21 15:28 | 43.46653 | -1.69029 | 2615 ft | 162 kts | 91° |
| 2026-04-21 15:29 | 43.46671 | -1.67484 | 2398 ft | 160 kts | 90° |
| 2026-04-21 15:29 | 43.46688 | -1.65989 | 2195 ft | 152 kts | 90° |
| 2026-04-21 15:29 | 43.46705 | -1.64581 | 2003 ft | 142 kts | 90° |
| 2026-04-21 15:29 | 43.46720 | -1.63268 | 1806 ft | 135 kts | 90° |
| 2026-04-21 15:30 | 43.46734 | -1.61987 | 1602 ft | 134 kts | 90° |
| 2026-04-21 15:30 | 43.46748 | -1.60695 | 1398 ft | 134 kts | 90° |
| 2026-04-21 15:30 | 43.46763 | -1.59407 | 1196 ft | 134 kts | 90° |
| 2026-04-21 15:30 | 43.46775 | -1.58146 | 997 ft | 133 kts | 89° |
| 2026-04-21 15:31 | 43.46790 | -1.56876 | 786 ft | 133 kts | 89° |
| 2026-04-21 15:31 | 43.46804 | -1.55607 | 575 ft | 132 kts | 89° |
| 2026-04-21 15:31 | 43.46818 | -1.54351 | 390 ft | 130 kts | 89° |
| 2026-04-21 15:31 | 43.46831 | -1.53132 | 254 ft | 123 kts | 89° |
| 2026-04-21 15:32 | 43.46839 | -1.52323 | 254 ft | 43 kts | 89° |
| 2026-04-21 15:32 | 43.46841 | -1.52067 | 254 ft | 20 kts | 89° |
| 2026-04-21 15:32 | 43.46835 | -1.51904 | 254 ft | 18 kts | 108° |
| 2026-04-21 15:32 | 43.46856 | -1.51824 | 254 ft | 3 kts | 328° |
| 2026-04-21 15:33 | 43.46856 | -1.51845 | 254 ft | 4 kts | 257° |
| 2026-04-21 15:33 | 43.46846 | -1.51904 | 254 ft | 9 kts | 258° |
| 2026-04-21 15:33 | 43.46843 | -1.52014 | 254 ft | 14 kts | 269° |
| 2026-04-21 15:33 | 43.46845 | -1.52162 | 254 ft | 16 kts | 290° |
| 2026-04-21 15:34 | 43.46921 | -1.52172 | 254 ft | 5 kts | 358° |
| 2026-04-21 15:34 | 43.46923 | -1.52172 | 254 ft | 0 kts | 358° |
| 2026-04-21 15:34 | 43.46939 | -1.52174 | 254 ft | 4 kts | 353° |
| 2026-04-21 15:34 | 43.46977 | -1.52192 | 254 ft | 8 kts | 327° |
| 2026-04-21 15:35 | 43.47003 | -1.52268 | 254 ft | 10 kts | 272° |
| 2026-04-21 15:35 | 43.47002 | -1.52384 | 254 ft | 14 kts | 269° |
| 2026-04-21 15:35 | 43.47002 | -1.52402 | 254 ft | 15 kts | 269° |
| 2026-04-21 15:35 | 43.47001 | -1.52554 | 254 ft | 18 kts | 269° |
| 2026-04-21 15:36 | 43.47000 | -1.52731 | 254 ft | 9 kts | 269° |
| 2026-04-21 15:36 | 43.47001 | -1.52836 | 254 ft | 12 kts | 284° |
| 2026-04-21 15:36 | 43.47027 | -1.52882 | 254 ft | 1 kts | 324° |
| 2026-04-21 15:36 | 43.47044 | -1.52901 | 254 ft | 5 kts | 314° |
| 2026-04-21 15:37 | 43.47056 | -1.52957 | 254 ft | 8 kts | 271° |
| 2026-04-21 15:37 | 43.47056 | -1.53045 | 254 ft | 11 kts | 269° |
| 2026-04-21 15:37 | 43.47055 | -1.53106 | 254 ft | 5 kts | 269° |
| 2026-04-21 15:37 | 43.47076 | -1.53131 | 254 ft | 5 kts | 5° |
| 2026-04-21 15:38 | 43.47099 | -1.53122 | 254 ft | 3 kts | 17° |
| 2026-04-21 15:38 | 43.47110 | -1.53117 | 254 ft | 0 kts | 17° |